San Clemente, CA (92672)

1:04 AM PDT on September 20, 2014 (GMT -0700)
Shorecliffs | Change Station
CLOSE
Current Station
Personal Weather Station
Location: San Clemente, CA
Elevation: 174 ft
Nearby Weather Stations

Elev 174 ft 33.44 °N, 117.64 °W | Updated 48 seconds ago

Partly Cloudy
Partly Cloudy
65.5 °F
Feels Like 65.5 °F
N
1.0
Wind Variable Wind from NE
Gusts 0.0 mph

Today
High -- | Low -- °F
--% Chance of Precip.
Yesterday
High -- | Low -- °F
Precip. -- in
6:37 AM 6:49 PM
Waning Crescent, 14% visible
Pressure 29.91 in
Visibility 8.0 miles
Clouds Overcast 1700 ft
Dew Point 61 °F
Humidity 86%
Rainfall 0.00 in
Snow Depth Not available.
UV 0 out of 12
Pollen 5.80 out of 12
Ozone Good
Flu Activity Not available.
METAR KNFG 200754Z AUTO 05004KT 8SM OVC017 18/14 A2991 RMK AO2 SLP126 T01830139 402610172

More Conditions Fewer Conditions

Pressure 29.91 in
Visibility 8.0 miles
Clouds Overcast 1700 ft
Dew Point 61 °F
Humidity 86%
Rainfall 0.00 in
Snow Depth Not available.
UV 0 out of 12
Pollen 5.80 out of 12
Ozone Good
Flu Activity Not available.
METAR KNFG 200754Z AUTO 05004KT 8SM OVC017 18/14 A2991 RMK AO2 SLP126 T01830139 402610172

More Conditions Fewer Conditions

10-Day Weather Forecast

Almanac

Astronomy

Sep. 20, 2014 Rise Set
Actual Time 6:37 AM PDT 6:49 PM PDT
Civil Twilight 6:12 AM PDT 7:14 PM PDT
Nautical Twilight 5:43 AM PDT 7:43 PM PDT
Astronomical Twilight 5:14 AM PDT 8:12 PM PDT
Moon 3:28 AM PDT 4:49 PM PDT
Length of Visible Light 13h 02m
Length of Day
12h 12m
Tomorrow will be 2m 3s shorter.
Waning Crescent, 14% of the Moon is Illuminated
Today
Waning Crescent
Sep 24
New
Oct 1
First Quarter
Oct 8
Full
Oct 15
Last Quarter

Today's Extremes

State Highs State Lows

Community

WunderPhotos

Upload Photos

1,754,793 photos uploaded!

WunderBlogs® & News

Nearby

Air Quality

  Air Quality AQ Index Pollutant
Yesterday Good
OZONE
Current Good
OZONE
Saturday Good
OZONE
Saturday Good
PM10
Saturday Good
CO
Saturday Good
NO2

Snow Depth

Station Depth Elevation
Adin Mountain 0 in 6200 ft
Spratt Creek 1 in 6200 ft
Tahoe City Cross 0 in 6750 ft
Sonora Pass 0 in 8800 ft
Monitor Pass 0 in 8350 ft

Earthquake Activity

City Distance Mag. Time & Date
Aguanga, California 48 miles 2.5 1:38 AM PDT
2014-09-19
Minimum magnitude displayed is 2.5.

Coastal Water Temperatures

Place Temperature
Santa Monica Pier 69.1 °F
Los Angeles, CA 66.9 °F
La Jolla, CA 68.0 °F

Nearby Weather Stations